Tiempo atmosférico en la estación meteorológica de Cañamero, Cáceres (590 m.)



Fecha
DESCASC
Temp. máxima en grados centígrados (hora)
DESCASC
Temp. mínima en grados centígrados (hora)
DESCASC
Temp. media en grados centígrados
DESCASC
Racha de viento máxima en m/sg (hora)
DESCASC
Velocidad máxima media en intervalos de 10 minutos(hora)
DESCASC
Precipitaciones diarias en mm
DESCASC
Precipitaciones de 00:00 a 06:00 en mm
DESCASC
Precipitaciones de 06:00 a 12:00 en mm
DESCASC
Precipitaciones de 12:00 a 18:00 en mm
DESCASC
Precipitaciones de 18:00 a 24:00 en mm
DESCASC
17-03-2019 16.8 (18:20) 6.2 (07:00) 11.5 10 (15:30) 6.94 (15:30) 0 0 0 0 0
16-03-2019 22.3 (17:00) 11.3 (07:40) 16.8 6.11 (14:50) 3.61 (14:50) 0 0 0 0 0
15-03-2019 23.3 (17:30) 7.5 (00:30) 15.4 4.72 (11:10) 2.5 (05:40) 0 0 0 0 0
14-03-2019 17.8 (16:50) 5.9 (00:00) 11.8 5.56 (10:30) 2.78 (14:50) 0 0 0 0 0
13-03-2019 16.9 (18:10) 7.4 (00:00) 12.1 9.17 (07:40) 5 (07:40) 0 0 0 0 0
12-03-2019 19.7 (17:10) 11 (00:00) 15.4 8.89 (15:20) 6.11 (15:20) 0 0 0 0 0
11-03-2019 22.1 (16:30) 8.5 (00:00) 15.3 6.11 (11:50) 3.06 (18:00) 0 0 0 0 0
10-03-2019 21 (17:30) 7.8 (00:00) 14.4 6.67 (16:30) 4.17 (17:10) 0 0 0 0 0
09-03-2019 18.5 (15:50) 7.3 (00:00) 12.9 4.72 (14:40) 2.5 (08:10) 0 0 0 0 0
08-03-2019 14.7 (17:20) 7.3 (00:00) 11 5 (17:20) 3.33 (17:20) 3.4 3.4 0 0 0
07-03-2019 10.7 (17:50) 2.2 (00:00) 6.4 8.33 (14:10) 5.28 (14:20) 0.4 0 0 0.2 0.2
06-03-2019 12.6 (12:00) 5.8 (00:00) 9.2 17.5 (13:00) 11.39 (13:00) 15.2 0 12.2 2.8 0.2
05-03-2019 15.5 (17:10) 6.6 (00:00) 11 8.06 (20:00) 4.44 (20:00) 0 0 0 0 0
04-03-2019 13.9 (16:40) 6.3 (00:00) 10.1 8.89 (17:10) 6.11 (16:40) 2.2 0 1.8 0.4 0
03-03-2019 18.2 (15:30) 6.2 (00:00) 12.2 7.22 (14:50) 3.61 (14:50) 0 0 0 0 0
02-03-2019 18.1 (17:00) 5.2 (00:00) 11.7 6.11 (16:10) 3.89 (16:20) 0 0 0 0 0
01-03-2019 17.1 (14:00) 7.6 (00:00) 12.4 6.39 (14:10) 4.17 (17:20) 0 0 0 0 0
28-02-2019 17 (15:20) 5.9 (00:00) 11.5 4.72 (15:40) 2.78 (17:30) 0 0 0 0 0
27-02-2019 17.8 (15:10) 6.4 (00:00) 12.1 5.28 (15:40) 3.89 (17:00) 0 0 0 0 0
26-02-2019 20.9 (16:20) 9.5 (00:00) 15.2 7.22 (12:50) 3.06 (13:00) 0 0 0 0 0
25-02-2019 20.2 (17:30) 7.7 (00:00) 14 6.11 (09:20) 3.33 (09:20) 0 0 0 0 0
24-02-2019 20.4 (16:10) 9.7 (00:00) 15 6.67 (13:20) 3.06 (13:20) 0 0 0 0 0
23-02-2019 17.5 (16:40) 6.2 (00:00) 11.8 3.61 (21:20) 2.5 (23:00) 0 0 0 0 0
22-02-2019 19.9 (15:50) 8.8 (00:00) 14.3 6.39 (07:10) 3.33 (07:10) 0 0 0 0 0
21-02-2019 18.2 (16:00) 8 (00:00) 13.1 6.39 (08:10) 3.06 (04:30) 0 0 0 0 0
20-02-2019 16.4 (16:50) 6.4 (00:00) 11.4 4.17 (04:10) 2.5 (03:30) 0 0 0 0 0

Gráficas

Temp. máximas Temp. mínimas Temp. medias Precipitaciones Rachas de viento máximas Velocidades máximas media en intervalos de 10 minutos

Datos horarios

Fecha y hora oficial Temperatura (ºC) Velocidad del viento (km/h) Dirección del viento Racha (km/h) Dirección de racha Precipitación (mm) Presión (hPa) Tendencia (hPa) Humedad (%)
2019-03-21 23:00:00 8.9 5 Nordeste 9 Este 0 -- -- 43
2019-03-21 22:00:00 9.4 3 Este 8 Nordeste 0 -- -- 43
2019-03-21 21:00:00 9.8 2 Este 6 Este 0 -- -- 44
2019-03-21 20:00:00 11.5 0 Calma 5 Sudeste 0 -- -- 47
2019-03-21 19:00:00 14.7 0 Calma 13 Sudeste 0 -- -- 36
2019-03-21 18:00:00 16.5 4 Este 17 Sudeste 0 -- -- 32
2019-03-21 17:00:00 16.1 7 Nordeste 16 Nordeste 0 -- -- 32
2019-03-21 16:00:00 15.6 5 Este 22 Sudeste 0 -- -- 34
2019-03-21 15:00:00 15.7 8 Sudeste 26 Este 0 -- -- 35
2019-03-21 14:00:00 15.1 7 Este 22 Este 0 -- -- 37
2019-03-21 13:00:00 14.1 9 Este 23 Este 0 -- -- 42
2019-03-21 12:00:00 13.2 10 Sudeste 24 Este 0 -- -- 44
2019-03-21 11:00:00 12.2 8 Este 22 Sudeste 0 -- -- 42
2019-03-21 10:00:00 11 9 Este 23 Este 0 -- -- 41
2019-03-21 09:00:00 8.1 9 Este 22 Este 0 -- -- 55
2019-03-21 08:00:00 6.5 10 Nordeste 23 Nordeste 0 -- -- 59
2019-03-21 07:00:00 6.7 11 Nordeste 24 Nordeste 0 -- -- 56
2019-03-21 06:00:00 6.7 9 Este 18 Nordeste 0 -- -- 55
2019-03-21 05:00:00 7.5 4 Este 18 Nordeste 0 -- -- 49
2019-03-21 04:00:00 8.1 5 Este 14 Nordeste 0 -- -- 47
2019-03-21 03:00:00 8.7 8 Nordeste 14 Este 0 -- -- 45
2019-03-21 02:00:00 8.3 6 Nordeste 14 Nordeste 0 -- -- 47
2019-03-21 01:00:00 8.2 5 Nordeste 14 Este 0 -- -- 48
2019-03-21 00:00:00 8.7 7 Nordeste 13 Este 0 -- -- 47
2019-03-20 23:00:00 9.2 6 Nordeste 13 Este 0 -- -- 46
2019-03-20 22:00:00 9.9 7 Nordeste 12 Este 0 -- -- 44
2019-03-20 21:00:00 10.5 8 Nordeste 14 Nordeste 0 -- -- 44
2019-03-20 20:00:00 11.1 6 Nordeste 11 Nordeste 0 -- -- 47
2019-03-20 19:00:00 14.3 4 Nordeste 18 Nordeste 0 -- -- 39
2019-03-20 18:00:00 15.1 7 Este 23 Nordeste 0 -- -- 37
2019-03-20 17:00:00 14.7 10 Nordeste 24 Nordeste 0 -- -- 38
2019-03-20 16:00:00 14.9 6 Este 23 Este 0 -- -- 38
2019-03-20 15:00:00 14.3 9 Este 31 Nordeste 0 -- -- 39
2019-03-20 14:00:00 13.8 10 Nordeste 26 Este 0 -- -- 43
2019-03-20 13:00:00 12.9 11 Este 28 Este 0 -- -- 42
2019-03-20 12:00:00 11.8 12 Este 36 Nordeste 0 -- -- 44
2019-03-20 11:00:00 10.4 10 Este 35 Este 0 -- -- 48
2019-03-20 10:00:00 8.7 17 Nordeste 36 Nordeste 0 -- -- 51
2019-03-20 09:00:00 7 18 Nordeste 36 Nordeste 0 -- -- 54
2019-03-20 08:00:00 5.7 12 Nordeste 27 Nordeste 0 -- -- 57
2019-03-20 07:00:00 4.2 3 Este 13 Sudeste 0 -- -- 68
2019-03-20 06:00:00 4.2 2 Este 8 Sudeste 0 -- -- 70
2019-03-20 05:00:00 5.3 2 Sudeste 8 Sur 0 -- -- 65
2019-03-20 04:00:00 7 3 Este 14 Este 0 -- -- 60
2019-03-20 03:00:00 8.4 7 Este 19 Este 0 -- -- 54
2019-03-20 02:00:00 9.1 8 Este 23 Nordeste 0 -- -- 52
2019-03-20 01:00:00 9.5 10 Nordeste 20 Nordeste 0 -- -- 52
2019-03-20 00:00:00 9.3 7 Nordeste 15 Nordeste 0 -- -- 53
2019-03-19 23:00:00 10.6 9 Nordeste 18 Nordeste 0 -- -- 49
2019-03-19 22:00:00 11 7 Nordeste 18 Norte 0 -- -- 47
2019-03-19 21:00:00 11.4 9 Nordeste 15 Norte 0 -- -- 47
2019-03-19 20:00:00 12.4 6 Nordeste 16 Nordeste 0 -- -- 44
2019-03-19 19:00:00 14.9 9 Nordeste 26 Nordeste 0 -- -- 39
2019-03-19 18:00:00 15.6 14 Nordeste 30 Nordeste 0 -- -- 38
2019-03-19 17:00:00 15.7 14 Nordeste 25 Nordeste 0 -- -- 38
2019-03-19 16:00:00 15.6 13 Nordeste 28 Norte 0 -- -- 40
2019-03-19 15:00:00 15.6 13 Nordeste 25 Norte 0 -- -- 39
2019-03-19 14:00:00 14.8 13 Nordeste 28 Nordeste 0 -- -- 41
2019-03-19 13:00:00 14.3 10 Nordeste 25 Este 0 -- -- 42
2019-03-19 12:00:00 13.8 8 Este 27 Este 0 -- -- 42
2019-03-19 11:00:00 12.3 11 Nordeste 26 Este 0 -- -- 44
2019-03-19 10:00:00 10.7 9 Este 22 Este 0 -- -- 49
2019-03-19 09:00:00 7.9 6 Este 21 Nordeste 0 -- -- 54
2019-03-19 08:00:00 6.6 6 Este 23 Nordeste 0 -- -- 53
2019-03-19 07:00:00 6.9 7 Este 18 Este 0 -- -- 51
2019-03-19 06:00:00 7.6 4 Este 15 Sudeste 0 -- -- 47
2019-03-19 05:00:00 8.3 8 Nordeste 14 Este 0 -- -- 46
2019-03-19 04:00:00 8.8 7 Nordeste 16 Nordeste 0 -- -- 45
2019-03-19 03:00:00 9.2 10 Nordeste 18 Nordeste 0 -- -- 45
2019-03-19 02:00:00 9.4 8 Nordeste 14 Este 0 -- -- 41
2019-03-19 01:00:00 9.2 5 Nordeste 12 Este 0 -- -- 39
2019-03-19 00:00:00 9.5 6 Nordeste 12 Nordeste 0 -- -- 39
2019-03-18 23:00:00 9.9 5 Nordeste 12 Nordeste 0 -- -- 37
2019-03-18 22:00:00 10.4 5 Nordeste 10 Nordeste 0 -- -- 38
2019-03-18 21:00:00 10.7 7 Nordeste 10 Nordeste 0 -- -- 38
2019-03-18 20:00:00 12.4 4 Nordeste 19 Este 0 -- -- 34
2019-03-18 19:00:00 15.3 7 Nordeste 21 Este 0 -- -- 28
2019-03-18 18:00:00 16.3 9 Este 26 Nordeste 0 -- -- 25
2019-03-18 17:00:00 16.3 12 Nordeste 24 Nordeste 0 -- -- 27
2019-03-18 16:00:00 16.2 12 Nordeste 29 Nordeste 0 -- -- 28
2019-03-18 15:00:00 16 10 Nordeste 31 Nordeste 0 -- -- 32
2019-03-18 14:00:00 15.6 13 Nordeste 29 Nordeste 0 -- -- 31
2019-03-18 13:00:00 14.8 13 Este 31 Nordeste 0 -- -- 32
2019-03-18 12:00:00 13.8 13 Nordeste 27 Sudeste 0 -- -- 38
2019-03-18 11:00:00 12.7 12 Este 29 Este 0 -- -- 40
2019-03-18 10:00:00 11.3 9 Este 27 Sudeste 0 -- -- 49
2019-03-18 09:00:00 9.2 8 Este 23 Este 0 -- -- 59
2019-03-18 08:00:00 8.3 5 Este 18 Sudeste 0 -- -- 72
2019-03-18 07:00:00 8.4 7 Este 24 Este 0 -- -- 71
2019-03-18 06:00:00 9.5 7 Este 19 Este 0 -- -- 66
2019-03-18 05:00:00 8.8 0 Calma 8 Este 0 -- -- 75
2019-03-18 04:00:00 9.4 2 Este 8 Este 0 -- -- 73
2019-03-18 03:00:00 9.5 2 Este 10 Nordeste 0 -- -- 71
2019-03-18 02:00:00 8.3 2 Este 5 Este 0 -- -- 73
2019-03-18 01:00:00 9.6 0 Calma 9 Noroeste 0 -- -- 67
2019-03-18 00:00:00 10.5 3 Este 12 Noroeste 0 -- -- 64
2019-03-17 23:00:00 11.9 7 Norte 14 Noroeste 0 -- -- 57
2019-03-17 22:00:00 12.9 9 Norte 23 Norte 0 -- -- 56
2019-03-17 21:00:00 13.6 10 Norte 31 Norte 0 -- -- 56
2019-03-17 20:00:00 14.1 10 Noroeste 23 Noroeste 0 -- -- 57
2019-03-17 19:00:00 16.2 8 Noroeste 20 Oeste 0 -- -- 58
2019-03-17 18:00:00 16.6 11 Noroeste 26 Oeste 0 -- -- 56
2019-03-17 17:00:00 16.2 20 Oeste 32 Sudoeste 0 -- -- 49
2019-03-17 16:00:00 16.1 19 Oeste 36 Oeste 0 -- -- 49
2019-03-17 15:00:00 15.8 23 Oeste 36 Oeste 0 -- -- 49
2019-03-17 14:00:00 14.7 21 Sudoeste 27 Sudoeste 0 -- -- 60
2019-03-17 13:00:00 13.6 15 Oeste 27 Sudoeste 0 -- -- 63
2019-03-17 12:00:00 12.1 14 Oeste 20 Oeste 0 -- -- 67
2019-03-17 11:00:00 10.8 6 Oeste 14 Oeste 0 -- -- 71
2019-03-17 10:00:00 10.4 5 Oeste 9 Sudoeste 0 -- -- 76
2019-03-17 09:00:00 8.3 5 Sudoeste 6 Sudoeste 0 -- -- 82
2019-03-17 08:00:00 6.7 2 Sudoeste 10 Oeste 0 -- -- 80
2019-03-17 07:00:00 6.2 3 Noroeste 5 Sudoeste 0 -- -- 83
2019-03-17 06:00:00 7.4 2 Noroeste 13 Sudoeste 0 -- -- 76
2019-03-17 05:00:00 10.2 3 Sur 8 Noroeste 0 -- -- 59
2019-03-17 04:00:00 10.5 3 Oeste 8 Sudoeste 0 -- -- 59
2019-03-17 03:00:00 12.8 5 Norte 12 Norte 0 -- -- 53
2019-03-17 02:00:00 12.5 7 Norte 12 Noroeste 0 -- -- 56
2019-03-17 01:00:00 12 8 Oeste 14 Sudoeste 0 -- -- 55
2019-03-17 00:00:00 13.6 6 Oeste 9 Oeste 0 -- -- 47
2019-03-16 23:00:00 13.2 4 Oeste 8 Oeste 0 -- -- 46
2019-03-16 22:00:00 13.1 5 Oeste 9 Oeste 0 -- -- 45
2019-03-16 21:00:00 15 3 Noroeste 7 Noroeste 0 -- -- 43
2019-03-16 20:00:00 16.1 0 Calma 4 Nordeste 0 -- -- 47
2019-03-16 19:00:00 21.4 3 Norte 10 Noroeste 0 -- -- 34
2019-03-16 18:00:00 22 5 Noroeste 15 Oeste 0 -- -- 32
2019-03-16 17:00:00 22.3 6 Oeste 19 Sudoeste 0 -- -- 32
2019-03-16 16:00:00 21.9 10 Oeste 20 Oeste 0 -- -- 32
2019-03-16 15:00:00 21.9 9 Oeste 22 Sudoeste 0 -- -- 34
2019-03-16 14:00:00 21.8 9 Oeste 16 Oeste 0 -- -- 32
2019-03-16 13:00:00 21.3 4 Noroeste 10 Noroeste 0 -- -- 36
2019-03-16 12:00:00 20.6 4 Sur 12 Este 0 -- -- 32
2019-03-16 11:00:00 19.5 4 Este 14 Nordeste 0 -- -- 38
2019-03-16 10:00:00 16.9 8 Este 15 Nordeste 0 -- -- 42
2019-03-16 09:00:00 14.4 8 Este 17 Nordeste 0 -- -- 44
2019-03-16 08:00:00 11.6 3 Este 13 Sudeste 0 -- -- 49
2019-03-16 07:00:00 11.7 6 Este 15 Este 0 -- -- 47
2019-03-16 06:00:00 11.6 5 Este 12 Este 0 -- -- 50
2019-03-16 05:00:00 14.4 6 Este 16 Nordeste 0 -- -- 42
2019-03-16 04:00:00 14.3 10 Este 15 Nordeste 0 -- -- 43
2019-03-16 03:00:00 13.9 5 Este 14 Nordeste 0 -- -- 45
2019-03-16 02:00:00 14.6 4 Este 10 Nordeste 0 -- -- 42
2019-03-16 01:00:00 14.7 5 Este 12 Nordeste 0 -- -- 42
2019-03-16 00:00:00 12.8 5 Este 9 Este 0 -- -- 52
2019-03-15 23:00:00 13.2 3 Norte 8 Norte 0 -- -- 57
2019-03-15 22:00:00 15.4 3 Norte 10 Norte 0 -- -- 51
2019-03-15 21:00:00 15.3 4 Norte 7 Norte 0 -- -- 46
2019-03-15 20:00:00 17.3 3 Noroeste 5 Noroeste 0 -- -- 40
2019-03-15 19:00:00 21.2 3 Noroeste 10 Oeste 0 -- -- 34
2019-03-15 18:00:00 22.6 7 Oeste 10 Sudoeste 0 -- -- 29
2019-03-15 17:00:00 23 4 Este 13 Sudoeste 0 -- -- 27
2019-03-15 16:00:00 22.5 4 Sudeste 13 Sudeste 0 -- -- 29
2019-03-15 15:00:00 21.5 5 Este 16 Sur 0 -- -- 26
2019-03-15 14:00:00 21.2 6 Sudeste 14 Sur 0 -- -- 26
2019-03-15 13:00:00 19.2 5 Este 13 Sudeste 0 -- -- 30
2019-03-15 12:00:00 17.4 4 Este 17 Este 0 -- -- 40
2019-03-15 11:00:00 15.3 5 Este 17 Sudeste 0 -- -- 48
2019-03-15 10:00:00 13.5 4 Este 12 Este 0 -- -- 53
2019-03-15 09:00:00 9.6 4 Este 12 Este 0 -- -- 61
2019-03-15 08:00:00 7.6 6 Este 13 Nordeste 0 -- -- 63
2019-03-15 07:00:00 8 4 Este 12 Este 0 -- -- 64
2019-03-15 06:00:00 8.6 4 Este 14 Nordeste 0 -- -- 65
2019-03-15 05:00:00 8.9 4 Este 14 Este 0 -- -- 65
2019-03-15 04:00:00 8.7 5 Este 11 Este 0 -- -- 70
2019-03-15 03:00:00 9.2 3 Este 9 Este 0 -- -- 66
2019-03-15 02:00:00 8 4 Este 6 Este 0 -- -- 70
2019-03-15 01:00:00 8 4 Nordeste 6 Nordeste 0 -- -- 67
2019-03-15 00:00:00 8.6 0 Calma 5 Norte 0 -- -- 69
2019-03-14 23:00:00 11.2 5 Norte 8 Nordeste 0 -- -- 60
2019-03-14 22:00:00 11.4 5 Norte 9 Norte 0 -- -- 62
2019-03-14 21:00:00 11.8 4 Noroeste 9 Norte 0 -- -- 60
2019-03-14 20:00:00 13.1 5 Oeste 6 Oeste 0 -- -- 61
2019-03-14 19:00:00 16.1 6 Oeste 12 Sudoeste 0 -- -- 53
2019-03-14 18:00:00 17 9 Oeste 15 Oeste 0 -- -- 50
2019-03-14 17:00:00 17.7 7 Oeste 15 Oeste 0 -- -- 44
2019-03-14 16:00:00 17.2 8 Oeste 17 Sudoeste 0 -- -- 47
2019-03-14 15:00:00 16.7 6 Oeste 15 Oeste 0 -- -- 45
2019-03-14 14:00:00 16.1 4 Sudoeste 15 Nordeste 0 -- -- 45
2019-03-14 13:00:00 14.2 5 Nordeste 14 Nordeste 0 -- -- 46
2019-03-14 12:00:00 13.4 6 Este 15 Sudeste 0 -- -- 49
2019-03-14 11:00:00 12.3 7 Este 20 Este 0 -- -- 48
2019-03-14 10:00:00 10.6 6 Este 18 Sudeste 0 -- -- 50
2019-03-14 09:00:00 7.6 6 Este 15 Este 0 -- -- 58
2019-03-14 08:00:00 6.1 5 Nordeste 17 Este 0 -- -- 60
2019-03-14 07:00:00 6.7 6 Este 18 Este 0 -- -- 58
2019-03-14 06:00:00 6.2 4 Este 13 Este 0 -- -- 60
2019-03-14 05:00:00 6.3 3 Este 10 Nordeste 0 -- -- 60
2019-03-14 04:00:00 7.2 4 Este 16 Sudeste 0 -- -- 58
2019-03-14 03:00:00 7.2 5 Este 13 Sudeste 0 -- -- 57
2019-03-14 02:00:00 7.4 6 Este 13 Este 0 -- -- 56
2019-03-14 01:00:00 8 4 Este 13 Este 0 -- -- 55
2019-03-14 00:00:00 8.8 6 Este 21 Nordeste 0 -- -- 51
2019-03-13 23:00:00 9 6 Este 16 Este 0 -- -- 52
2019-03-13 22:00:00 9.7 6 Sudeste 17 Este 0 -- -- 54
2019-03-13 21:00:00 10.7 5 Nordeste 10 Este 0 -- -- 53
2019-03-13 20:00:00 13.6 2 Este 12 Nordeste 0 -- -- 52
2019-03-13 19:00:00 16.6 3 Sudeste 11 Sudeste 0 -- -- 58
2019-03-13 18:00:00 16.5 3 Norte 13 Noroeste 0 -- -- 53
2019-03-13 17:00:00 16.4 7 Oeste 19 Oeste 0 -- -- 57
2019-03-13 16:00:00 16.1 8 Sudoeste 20 Sudoeste 0 -- -- 61
2019-03-13 15:00:00 15.3 7 Oeste 18 Sudoeste 0 -- -- 61
2019-03-13 14:00:00 15.2 0 Calma 17 Este 0 -- -- 60
2019-03-13 13:00:00 15.5 9 Este 20 Sudeste 0 -- -- 59
2019-03-13 12:00:00 14.1 8 Este 18 Sudeste 0 -- -- 65
2019-03-13 11:00:00 13.1 6 Sur 15 Sudeste 0 -- -- 69
2019-03-13 10:00:00 10.3 4 Oeste 17 Oeste 0 -- -- 75
2019-03-13 09:00:00 8.2 9 Oeste 21 Noroeste 0 -- -- 84
2019-03-13 08:00:00 7.5 10 Noroeste 33 Norte 0 -- -- 87
2019-03-13 07:00:00 7.9 4 Norte 26 Norte 0 -- -- 86
2019-03-13 06:00:00 9.2 12 Noroeste 24 Noroeste 0 -- -- 79
2019-03-13 05:00:00 10.1 10 Noroeste 24 Noroeste 0 -- -- 74
2019-03-13 04:00:00 10.7 10 Oeste 25 Noroeste 0 -- -- 72
2019-03-13 03:00:00 10.7 13 Noroeste 21 Noroeste 0 -- -- 74
2019-03-13 02:00:00 9.8 8 Noroeste 20 Noroeste 0 -- -- 82
2019-03-13 01:00:00 10.4 5 Noroeste 15 Norte 0 -- -- 80
2019-03-13 00:00:00 11.9 8 Noroeste 17 Noroeste 0 -- -- 74
2019-03-12 23:00:00 12.4 6 Norte 13 Oeste 0 -- -- 67
2019-03-12 22:00:00 12.9 8 Oeste 17 Oeste 0 -- -- 57
2019-03-12 21:00:00 14 8 Oeste 21 Oeste 0 -- -- 48
2019-03-12 20:00:00 15 15 Oeste 24 Oeste 0 -- -- 48
2019-03-12 19:00:00 17.7 14 Oeste 32 Oeste 0 -- -- 56
2019-03-12 18:00:00 19.2 18 Oeste 31 Sudoeste 0 -- -- 55
2019-03-12 17:00:00 19.5 18 Oeste 31 Oeste 0 -- -- 58
2019-03-12 16:00:00 19.3 17 Oeste 32 Oeste 0 -- -- 60
2019-03-12 15:00:00 19.1 19 Sudoeste 30 Sudoeste 0 -- -- 61
2019-03-12 14:00:00 18.7 18 Oeste 27 Sudoeste 0 -- -- 65
2019-03-12 13:00:00 17.7 13 Oeste 22 Oeste 0 -- -- 66
2019-03-12 12:00:00 17.2 11 Oeste 18 Sudoeste 0 -- -- 67
2019-03-12 11:00:00 16.9 6 Sudoeste 12 Sudoeste 0 -- -- 64
2019-03-12 10:00:00 15.7 4 Sur 8 Sudoeste 0 -- -- 69
2019-03-12 09:00:00 12.1 0 Calma 9 Este 0 -- -- 75
2019-03-12 08:00:00 11.1 6 Este 14 Nordeste 0 -- -- 73
2019-03-12 07:00:00 11.3 5 Este 12 Este 0 -- -- 73
2019-03-12 06:00:00 11.8 4 Este 13 Nordeste 0 -- -- 71
2019-03-12 05:00:00 12.6 7 Este 19 Este 0 -- -- 68
2019-03-12 04:00:00 11.5 4 Este 9 Nordeste 0 -- -- 73
2019-03-12 03:00:00 11.8 3 Este 10 Sudeste 0 -- -- 74
2019-03-12 02:00:00 12.9 4 Este 7 Este 0 -- -- 71
2019-03-12 01:00:00 13.3 3 Este 10 Este 0 -- -- 70
2019-03-12 00:00:00 12.8 4 Nordeste 9 Norte 0 -- -- 73
2019-03-11 23:00:00 14.9 7 Norte 12 Norte 0 -- -- 65
2019-03-11 22:00:00 15.3 8 Norte 12 Norte 0 -- -- 67
2019-03-11 21:00:00 15.4 4 Noroeste 9 Noroeste 0 -- -- 77
2019-03-11 20:00:00 17.1 7 Noroeste 12 Noroeste 0 -- -- 70
2019-03-11 19:00:00 19.6 8 Oeste 14 Oeste 0 -- -- 60
2019-03-11 18:00:00 21.1 11 Sudoeste 16 Oeste 0 -- -- 50
2019-03-11 17:00:00 21.8 4 Sudoeste 11 Noroeste 0 -- -- 47
2019-03-11 16:00:00 21.5 6 Sudoeste 13 Este 0 -- -- 47
2019-03-11 15:00:00 21.1 5 Este 16 Nordeste 0 -- -- 48
2019-03-11 14:00:00 20.3 5 Este 18 Sudeste 0 -- -- 50
2019-03-11 13:00:00 19 10 Este 21 Sudeste 0 -- -- 57
2019-03-11 12:00:00 17.8 9 Este 22 Sudeste 0 -- -- 64
2019-03-11 11:00:00 16.3 6 Nordeste 16 Este 0 -- -- 74
2019-03-11 10:00:00 13.8 3 Este 14 Este 0 -- -- 88
2019-03-11 09:00:00 10.5 3 Este 12 Nordeste 0 -- -- 99
2019-03-11 08:00:00 8.8 4 Este 8 Este 0 -- -- 98
2019-03-11 07:00:00 8.8 4 Sudeste 8 Sudeste 0 -- -- 97
2019-03-11 06:00:00 8.8 3 Este 8 Sudeste 0 -- -- 98
2019-03-11 05:00:00 8.6 0 Calma 5 Sudeste 0 -- -- 97
2019-03-11 04:00:00 9.4 2 Sudeste 8 Sur 0 -- -- 95
2019-03-11 03:00:00 9.4 2 Norte 4 Norte 0 -- -- 95
2019-03-11 02:00:00 10.3 3 Sur 4 Sur 0 -- -- 91
2019-03-11 01:00:00 11 0 Calma 4 Sudoeste 0 -- -- 87
2019-03-11 00:00:00 12.2 0 Calma 8 Oeste 0 -- -- 81
2019-03-10 23:00:00 14.9 7 Oeste 11 Oeste 0 -- -- 67
2019-03-10 22:00:00 14.6 3 Noroeste 7 Oeste 0 -- -- 71
2019-03-10 21:00:00 14.9 3 Noroeste 6 Noroeste 0 -- -- 73
2019-03-10 20:00:00 16.9 3 Noroeste 10 Noroeste 0 -- -- 65
2019-03-10 19:00:00 19.4 5 Noroeste 16 Noroeste 0 -- -- 59
2019-03-10 18:00:00 20.6 9 Noroeste 22 Sudoeste 0 -- -- 51
2019-03-10 17:00:00 20.5 12 Sudoeste 24 Sudoeste 0 -- -- 57
2019-03-10 16:00:00 19.7 14 Sudoeste 22 Oeste 0 -- -- 64
2019-03-10 15:00:00 18.8 14 Oeste 22 Oeste 0 -- -- 60
2019-03-10 14:00:00 18.4 9 Oeste 15 Oeste 0 -- -- 62
2019-03-10 13:00:00 18.4 3 Sur 10 Oeste 0 -- -- 60
2019-03-10 12:00:00 16.9 6 Sudoeste 11 Oeste 0 -- -- 59
2019-03-10 11:00:00 15.5 5 Sudoeste 9 Sudoeste 0 -- -- 65
2019-03-10 10:00:00 13.9 0 Calma 6 Este 0 -- -- 68
2019-03-10 09:00:00 10.3 3 Este 6 Sudeste 0 -- -- 81
2019-03-10 08:00:00 8.2 0 Calma 5 Este 0 -- -- 84
2019-03-10 07:00:00 8.1 2 Este 7 Este 0 -- -- 83
2019-03-10 06:00:00 9.5 3 Este 9 Este 0 -- -- 79
2019-03-10 05:00:00 9.9 4 Este 6 Este 0 -- -- 79
2019-03-10 04:00:00 8.6 2 Este 5 Sudeste 0 -- -- 84
2019-03-10 03:00:00 9.9 3 Este 6 Este 0 -- -- 79
2019-03-10 02:00:00 12 4 Norte 8 Norte 0 -- -- 65
2019-03-10 01:00:00 12.1 6 Norte 9 Norte 0 -- -- 66
2019-03-10 00:00:00 12.1 6 Norte 9 Norte 0 -- -- 66
2019-03-09 23:00:00 11.7 6 Norte 8 Norte 0 -- -- 69
2019-03-09 22:00:00 12.1 3 Norte 6 Noroeste 0 -- -- 71
2019-03-09 21:00:00 12.4 5 Noroeste 7 Noroeste 0 -- -- 71
2019-03-09 20:00:00 14.1 2 Oeste 9 Oeste 0 -- -- 65
2019-03-09 19:00:00 16.3 8 Oeste 13 Oeste 0 -- -- 57
2019-03-09 18:00:00 17.8 5 Oeste 15 Sudoeste 0 -- -- 51
2019-03-09 17:00:00 17.7 8 Oeste 15 Sur 0 -- -- 49
2019-03-09 16:00:00 18.2 8 Sudoeste 15 Sur 0 -- -- 47
2019-03-09 15:00:00 18 8 Sudoeste 17 Sudoeste 0 -- -- 50
2019-03-09 14:00:00 17.5 3 Sur 10 Sudeste 0 -- -- 47
2019-03-09 13:00:00 16.1 5 Sudoeste 10 Sudoeste 0 -- -- 50
2019-03-09 12:00:00 16.1 4 Este 15 Este 0 -- -- 53
2019-03-09 11:00:00 14.7 5 Este 12 Sudeste 0 -- -- 58
2019-03-09 10:00:00 12.5 5 Este 15 Este 0 -- -- 65
2019-03-09 09:00:00 9.3 4 Este 15 Nordeste 0 -- -- 76
2019-03-09 08:00:00 8 8 Este 15 Este 0 -- -- 76
2019-03-09 07:00:00 8.2 7 Este 14 Nordeste 0 -- -- 75
2019-03-09 06:00:00 8 6 Este 12 Este 0 -- -- 76
2019-03-09 05:00:00 7.5 5 Nordeste 11 Este 0 -- -- 80
2019-03-09 04:00:00 7.9 4 Este 10 Nordeste 0 -- -- 80
2019-03-09 03:00:00 8 4 Este 8 Este 0 -- -- 81
2019-03-09 02:00:00 8.4 3 Este 9 Este 0 -- -- 74
2019-03-09 01:00:00 8.8 4 Nordeste 9 Norte 0 -- -- 73
2019-03-09 00:00:00 10.5 6 Norte 12 Norte 0 -- -- 67
2019-03-08 23:00:00 10.3 6 Norte 11 Norte 0 -- -- 66
2019-03-08 22:00:00 10.3 5 Norte 9 Norte 0 -- -- 71
2019-03-08 21:00:00 10.3 7 Norte 11 Oeste 0 -- -- 76
2019-03-08 20:00:00 11.6 9 Oeste 16 Oeste 0 -- -- 74
2019-03-08 19:00:00 12.9 9 Oeste 14 Oeste 0 -- -- 71
2019-03-08 18:00:00 14.7 8 Oeste 18 Noroeste 0 -- -- 63
2019-03-08 17:00:00 13.8 8 Sudoeste 15 Sudoeste 0 -- -- 65
2019-03-08 16:00:00 14.2 4 Oeste 10 Sudoeste 0 -- -- 65
2019-03-08 15:00:00 13.5 3 Oeste 13 Sudoeste 0 -- -- 69
2019-03-08 14:00:00 12.6 3 Noroeste 13 Sudoeste 0 -- -- 69
2019-03-08 13:00:00 12.2 3 Sur 9 Sudeste 0 -- -- 75
2019-03-08 12:00:00 12 4 Sudoeste 11 Sudoeste 0 -- -- 78
2019-03-08 11:00:00 11.5 5 Sudeste 12 Sur 0 -- -- 81
2019-03-08 10:00:00 8.6 0 Calma 3 Sudeste 0 -- -- 98
2019-03-08 09:00:00 7.7 0 Calma 4 Noroeste 0 -- -- 98
2019-03-08 08:00:00 7.4 0 Calma 8 Sudoeste 0 -- -- 97
2019-03-08 07:00:00 7.7 4 Sudoeste 9 Sudoeste 0 -- -- 98
2019-03-08 06:00:00 7.8 3 Sur 10 Sur 0.2 -- -- 98
2019-03-08 05:00:00 7.9 4 Sur 10 Sur 0.8 -- -- 97
2019-03-08 04:00:00 7.7 2 Este 6 Este 0.4 -- -- 97
2019-03-08 03:00:00 7.8 2 Sudeste 3 Este 0.8 -- -- 96
2019-03-08 02:00:00 7.7 2 Norte 8 Oeste 0.6 -- -- 95
2019-03-08 01:00:00 8 6 Oeste 10 Oeste 0.6 -- -- 93
2019-03-08 00:00:00 8.3 0 Calma 2 Sudoeste 0.2 -- -- 92
2019-03-07 23:00:00 8.5 0 Calma 9 Oeste 0 -- -- 89
2019-03-07 22:00:00 8.9 3 Sudoeste 7 Oeste 0 -- -- 84
2019-03-07 21:00:00 9 0 Calma 4 Sudeste 0 -- -- 83
2019-03-07 20:00:00 9.2 0 Calma 9 Sudoeste 0 -- -- 79
2019-03-07 19:00:00 9.8 8 Sudoeste 17 Sudoeste 0 -- -- 76
2019-03-07 18:00:00 10.6 13 Sudoeste 22 Sudoeste 0 -- -- 70
2019-03-07 17:00:00 10.2 12 Sudoeste 21 Oeste 0 -- -- 71
2019-03-07 16:00:00 10.6 12 Oeste 24 Sudoeste 0 -- -- 70
2019-03-07 15:00:00 9.7 15 Oeste 30 Oeste 0 -- -- 74
2019-03-07 14:00:00 9.5 16 Oeste 26 Oeste 0 -- -- 75
2019-03-07 13:00:00 9 12 Sudoeste 21 Sudoeste 0.2 -- -- 78
2019-03-07 12:00:00 6.7 10 Oeste 17 Oeste 0 -- -- 95
2019-03-07 11:00:00 5.6 6 Sudoeste 10 Sudoeste 0 -- -- 100
2019-03-07 10:00:00 4.3 4 Sudoeste 9 Sudoeste 0 -- -- 100
2019-03-07 09:00:00 3.5 3 Sudoeste 6 Sudoeste 0 -- -- 100
2019-03-07 08:00:00 2.2 3 Sudeste 5 Sudeste 0 -- -- 99
2019-03-07 07:00:00 3.5 2 Sur 13 Sudoeste 0 -- -- 99
2019-03-07 06:00:00 4 7 Oeste 13 Sudoeste 0 -- -- 99
2019-03-07 05:00:00 4.3 10 Sudoeste 17 Oeste 0 -- -- 99
2019-03-07 04:00:00 4.7 8 Oeste 16 Sudoeste 0 -- -- 99
2019-03-07 03:00:00 4.9 9 Oeste 24 Oeste 0 -- -- 99
2019-03-07 02:00:00 5.3 14 Oeste 21 Sudoeste 0 -- -- 98
2019-03-07 01:00:00 5.5 13 Sudoeste 20 Sudoeste 0 -- -- 97
2019-03-07 00:00:00 5.8 9 Sudoeste 18 Sudoeste 0 -- -- 89
2019-03-06 23:00:00 5.8 10 Oeste 17 Oeste 0 -- -- 88
2019-03-06 22:00:00 6.6 5 Oeste 21 Oeste 0 -- -- 84
2019-03-06 21:00:00 7.3 8 Oeste 29 Oeste 0 -- -- 83
2019-03-06 20:00:00 8.2 14 Oeste 28 Oeste 0 -- -- 85
2019-03-06 19:00:00 8.5 17 Oeste 41 Noroeste 0.2 -- -- 81
2019-03-06 18:00:00 10.1 29 Oeste 46 Oeste 0 -- -- 71
2019-03-06 17:00:00 11.1 29 Oeste 57 Oeste 0 -- -- 64
2019-03-06 16:00:00 11.1 30 Oeste 55 Oeste 0 -- -- 67
2019-03-06 15:00:00 10.8 25 Oeste 48 Oeste 0.4 -- -- 76
2019-03-06 14:00:00 10 31 Oeste 53 Sudoeste 1.4 -- -- 98
2019-03-06 13:00:00 10.8 41 Oeste 63 Oeste 1 -- -- 80
2019-03-06 12:00:00 12.6 32 Sudoeste 50 Sudoeste 0 -- -- 88
2019-03-06 11:00:00 10.1 16 Sudoeste 28 Sur 0.4 -- -- 98
2019-03-06 10:00:00 9.6 14 Sur 27 Sudoeste 2.6 -- -- 97
2019-03-06 09:00:00 9.5 21 Sudoeste 42 Sudoeste 7.6 -- -- 92
2019-03-06 08:00:00 9.4 13 Sur 31 Sur 1.6 -- -- 90
2019-03-06 07:00:00 10.4 13 Sur 36 Sur 0 -- -- 78
2019-03-06 06:00:00 10.8 17 Sur 40 Sudoeste 0 -- -- 81
2019-03-06 05:00:00 11 16 Sudoeste 32 Sudoeste 0 -- -- 86
2019-03-06 04:00:00 11.5 16 Sudoeste 25 Sudoeste 0 -- -- 91
2019-03-06 03:00:00 11.6 10 Sudoeste 21 Sudoeste 0 -- -- 94
2019-03-06 02:00:00 11.9 8 Sur 23 Sudoeste 0 -- -- 92
2019-03-06 01:00:00 12.1 8 Sur 18 Sudoeste 0 -- -- 93
2019-03-06 00:00:00 12.3 7 Sur 20 Sur 0 -- -- 92
2019-03-05 23:00:00 12.4 6 Sur 17 Sur 0 -- -- 91
2019-03-05 22:00:00 12.9 8 Sur 19 Sur 0 -- -- 89
2019-03-05 21:00:00 13.4 10 Sur 28 Sur 0 -- -- 85
2019-03-05 20:00:00 14.2 16 Sudoeste 30 Sur 0 -- -- 77
2019-03-05 19:00:00 14.4 2 Sudeste 11 Sudoeste 0 -- -- 78
2019-03-05 18:00:00 15.3 5 Sur 18 Sudoeste 0 -- -- 72
2019-03-05 17:00:00 15.2 9 Sudoeste 21 Sudoeste 0 -- -- 72
2019-03-05 16:00:00 13.5 8 Sudoeste 19 Sudoeste 0 -- -- 74
2019-03-05 15:00:00 13.6 11 Sudoeste 25 Sur 0 -- -- 69
2019-03-05 14:00:00 13.3 8 Sudoeste 22 Sudoeste 0 -- -- 72
2019-03-05 13:00:00 13 4 Sur 17 Sudoeste 0 -- -- 72
2019-03-05 12:00:00 11.4 8 Oeste 15 Sudoeste 0 -- -- 79
2019-03-05 11:00:00 9.7 9 Sudoeste 15 Oeste 0 -- -- 90
2019-03-05 10:00:00 8.8 6 Oeste 10 Sudoeste 0 -- -- 92
2019-03-05 09:00:00 7.9 5 Oeste 10 Sudoeste 0 -- -- 93
2019-03-05 08:00:00 6.6 3 Sur 5 Sudoeste 0 -- -- 94
2019-03-05 07:00:00 7.4 0 Calma 3 Sur 0 -- -- 90
2019-03-05 06:00:00 8.1 2 Sur 3 Sudoeste 0 -- -- 88
2019-03-05 05:00:00 8.5 2 Sudoeste 9 Oeste 0 -- -- 85
2019-03-05 04:00:00 8.6 3 Noroeste 8 Oeste 0 -- -- 83
2019-03-05 03:00:00 8.5 5 Oeste 9 Oeste 0 -- -- 83
2019-03-05 02:00:00 8.5 4 Sudoeste 6 Sudoeste 0 -- -- 85
2019-03-05 01:00:00 9 2 Sur 4 Sur 0 -- -- 82
2019-03-05 00:00:00 9.4 0 Calma 11 Oeste 0 -- -- 80
2019-03-04 23:00:00 9.4 3 Oeste 9 Noroeste 0 -- -- 77
2019-03-04 22:00:00 10.7 5 Oeste 9 Oeste 0 -- -- 72
2019-03-04 21:00:00 10.9 4 Noroeste 13 Oeste 0 -- -- 72
2019-03-04 20:00:00 11.6 10 Oeste 19 Oeste 0 -- -- 71
2019-03-04 19:00:00 12.3 10 Oeste 26 Oeste 0 -- -- 70
2019-03-04 18:00:00 13.5 18 Oeste 32 Oeste 0 -- -- 66
2019-03-04 17:00:00 13.8 21 Oeste 30 Oeste 0 -- -- 73
2019-03-04 16:00:00 13.1 17 Oeste 26 Oeste 0 -- -- 86
2019-03-04 15:00:00 11.3 10 Oeste 23 Sudoeste 0.2 -- -- 99
2019-03-04 14:00:00 10.2 15 Oeste 23 Oeste 0.2 -- -- 99
2019-03-04 13:00:00 9.9 12 Oeste 21 Sudoeste 0 -- -- 99
2019-03-04 12:00:00 9.7 9 Sudoeste 15 Sudoeste 0.2 -- -- 99
2019-03-04 11:00:00 9.2 8 Sudoeste 14 Sudoeste 0 -- -- 99
2019-03-04 10:00:00 8.8 8 Sudoeste 12 Sudoeste 0.6 -- -- 99
2019-03-04 09:00:00 7.8 0 Calma 8 Oeste 0.8 -- -- 98
2019-03-04 08:00:00 7.5 4 Oeste 9 Sudoeste 0.2 -- -- 98
2019-03-04 07:00:00 7.2 0 Calma 8 Oeste 0 -- -- 97
2019-03-04 06:00:00 7 7 Oeste 13 Oeste 0 -- -- 96
2019-03-04 05:00:00 6.5 4 Noroeste 12 Oeste 0 -- -- 94
2019-03-04 04:00:00 7.1 3 Oeste 12 Sudoeste 0 -- -- 88
2019-03-04 03:00:00 7 3 Sudoeste 11 Sudoeste 0 -- -- 84
2019-03-04 02:00:00 8.6 5 Sudoeste 17 Oeste 0 -- -- 76
2019-03-04 01:00:00 10.9 14 Oeste 25 Oeste 0 -- -- 67
2019-03-04 00:00:00 11.7 9 Oeste 20 Oeste 0 -- -- 68
2019-03-03 23:00:00 11.9 5 Oeste 19 Oeste 0 -- -- 66
2019-03-03 22:00:00 13.6 10 Oeste 17 Oeste 0 -- -- 60
2019-03-03 21:00:00 13.7 8 Oeste 15 Oeste 0 -- -- 57
2019-03-03 20:00:00 14.4 7 Oeste 14 Oeste 0 -- -- 56
2019-03-03 19:00:00 15.9 6 Oeste 13 Noroeste 0 -- -- 53
2019-03-03 18:00:00 17.4 8 Oeste 18 Oeste 0 -- -- 50
2019-03-03 17:00:00 17.8 10 Oeste 18 Oeste 0 -- -- 49
2019-03-03 16:00:00 18 10 Oeste 20 Sudoeste 0 -- -- 47
2019-03-03 15:00:00 17.6 13 Oeste 26 Sudoeste 0 -- -- 48
2019-03-03 14:00:00 17.5 9 Oeste 18 Sudoeste 0 -- -- 52
2019-03-03 13:00:00 16.9 10 Oeste 21 Sudoeste 0 -- -- 55
2019-03-03 12:00:00 16.3 7 Oeste 13 Oeste 0 -- -- 61
2019-03-03 11:00:00 15.2 3 Sudoeste 7 Sudoeste 0 -- -- 62
2019-03-03 10:00:00 12.6 0 Calma 4 Sudoeste 0 -- -- 71
2019-03-03 09:00:00 7.7 3 Noroeste 5 Oeste 0 -- -- 87
2019-03-03 08:00:00 6.4 0 Calma 5 Nordeste 0 -- -- 87
2019-03-03 07:00:00 8.2 2 Este 5 Este 0 -- -- 79
2019-03-03 06:00:00 7.5 0 Calma 6 Norte 0 -- -- 82
2019-03-03 05:00:00 7 0 Calma 3 Nordeste 0 -- -- 85
2019-03-03 04:00:00 8.9 2 Este 6 Este 0 -- -- 78
2019-03-03 03:00:00 8.7 0 Calma 4 Este 0 -- -- 78
2019-03-03 02:00:00 8.4 0 Calma 4 Sur 0 -- -- 82
2019-03-03 01:00:00 8.9 2 Sur 4 Sur 0 -- -- 79
2019-03-03 00:00:00 10.4 0 Calma 4 Noroeste 0 -- -- 71
2019-03-02 23:00:00 10.3 2 Norte 3 Noroeste 0 -- -- 71
2019-03-02 22:00:00 11.8 2 Noroeste 8 Noroeste 0 -- -- 67
2019-03-02 21:00:00 11.6 0 Calma 8 Noroeste 0 -- -- 73
2019-03-02 20:00:00 13.9 4 Noroeste 13 Oeste 0 -- -- 62
2019-03-02 19:00:00 16.4 8 Sudoeste 18 Sudoeste 0 -- -- 56
2019-03-02 18:00:00 17.9 12 Oeste 21 Oeste 0 -- -- 53
2019-03-02 17:00:00 18.1 12 Oeste 22 Sudoeste 0 -- -- 48
2019-03-02 16:00:00 17.9 14 Sudoeste 21 Oeste 0 -- -- 48
2019-03-02 15:00:00 17.4 10 Oeste 19 Sudoeste 0 -- -- 55
2019-03-02 14:00:00 17 10 Sudoeste 17 Sudoeste 0 -- -- 57
2019-03-02 13:00:00 15.8 7 Oeste 13 Oeste 0 -- -- 67
2019-03-02 12:00:00 14.8 4 Sudoeste 9 Oeste 0 -- -- 71
2019-03-02 11:00:00 12.1 2 Noroeste 9 Noroeste 0 -- -- 78
2019-03-02 10:00:00 10.3 0 Calma 5 Sur 0 -- -- 82
2019-03-02 09:00:00 5.8 0 Calma 3 Nordeste 0 -- -- 95
2019-03-02 08:00:00 5.5 0 Calma 6 Norte 0 -- -- 90
2019-03-02 07:00:00 6.8 3 Norte 8 Este 0 -- -- 88
2019-03-02 06:00:00 7.7 4 Este 10 Este 0 -- -- 87
2019-03-02 05:00:00 8.1 4 Sudeste 10 Noroeste 0 -- -- 80
2019-03-02 04:00:00 7.6 5 Noroeste 10 Noroeste 0 -- -- 85
2019-03-02 03:00:00 8.8 6 Noroeste 8 Noroeste 0 -- -- 79
2019-03-02 02:00:00 8.3 0 Calma 5 Noroeste 0 -- -- 82
2019-03-02 01:00:00 10.2 0 Calma 8 Sudoeste 0 -- -- 75
2019-03-02 00:00:00 11.7 3 Sudeste 16 Oeste 0 -- -- 67
2019-03-01 23:00:00 12.2 5 Oeste 9 Oeste 0 -- -- 65
2019-03-01 22:00:00 12.3 6 Noroeste 10 Oeste 0 -- -- 69
2019-03-01 21:00:00 13.2 4 Noroeste 14 Oeste 0 -- -- 69
2019-03-01 20:00:00 13.8 8 Oeste 15 Oeste 0 -- -- 67
2019-03-01 19:00:00 14.4 9 Oeste 18 Oeste 0 -- -- 65
2019-03-01 18:00:00 15.3 11 Oeste 21 Oeste 0 -- -- 64
2019-03-01 17:00:00 15.7 14 Oeste 22 Sudoeste 0 -- -- 59
2019-03-01 16:00:00 16.3 13 Oeste 19 Oeste 0 -- -- 51
2019-03-01 15:00:00 16.4 13 Oeste 23 Sudoeste 0 -- -- 53
2019-03-01 14:00:00 17.1 10 Sudoeste 17 Sudoeste 0 -- -- 48
2019-03-01 13:00:00 16.1 8 Sudoeste 15 Sudoeste 0 -- -- 52
2019-03-01 12:00:00 15.3 6 Sudoeste 10 Oeste 0 -- -- 58
2019-03-01 11:00:00 14 3 Oeste 6 Oeste 0 -- -- 65
2019-03-01 10:00:00 11.4 0 Calma 5 Nordeste 0 -- -- 70
2019-03-01 09:00:00 7.9 2 Nordeste 6 Nordeste 0 -- -- 84
2019-03-01 08:00:00 7.8 2 Este 8 Este 0 -- -- 81
2019-03-01 07:00:00 8.4 3 Este 7 Este 0 -- -- 79
2019-03-01 06:00:00 8.7 3 Este 5 Nordeste 0 -- -- 78
2019-03-01 05:00:00 8.5 3 Este 5 Nordeste 0 -- -- 81
2019-03-01 04:00:00 8 0 Calma 3 Nordeste 0 -- -- 84
2019-03-01 03:00:00 9 0 Calma 5 Nordeste 0 -- -- 79
2019-03-01 02:00:00 10.1 2 Este 5 Este 0 -- -- 74
2019-03-01 01:00:00 10 2 Nordeste 7 Noroeste 0 -- -- 75
2019-03-01 00:00:00 10.5 2 Este 5 Este 0 -- -- 73
2019-02-28 23:00:00 10.1 0 Calma 7 Norte 0 -- -- 76
2019-02-28 22:00:00 10.3 4 Noroeste 5 Noroeste 0 -- -- 75
2019-02-28 21:00:00 11.1 3 Noroeste 5 Noroeste 0 -- -- 70
2019-02-28 20:00:00 12.2 4 Oeste 5 Oeste 0 -- -- 60
2019-02-28 19:00:00 13.8 3 Oeste 10 Oeste 0 -- -- 60
2019-02-28 18:00:00 15.2 8 Oeste 14 Oeste 0 -- -- 54
2019-02-28 17:00:00 16.3 8 Oeste 13 Oeste 0 -- -- 52
2019-02-28 16:00:00 16.8 6 Oeste 17 Oeste 0 -- -- 44
2019-02-28 15:00:00 16.7 7 Oeste 15 Oeste 0 -- -- 49
2019-02-28 14:00:00 16.3 5 Oeste 11 Oeste 0 -- -- 49
2019-02-28 13:00:00 14.2 5 Noroeste 12 Noroeste 0 -- -- 65
2019-02-28 12:00:00 13.3 5 Sudoeste 9 Sudoeste 0 -- -- 65
2019-02-28 11:00:00 12.5 3 Sudoeste 6 Noroeste 0 -- -- 61
2019-02-28 10:00:00 10.8 0 Calma 5 Nordeste 0 -- -- 61
2019-02-28 09:00:00 6.9 2 Este 8 Este 0 -- -- 75
2019-02-28 08:00:00 6 4 Este 10 Este 0 -- -- 74
2019-02-28 07:00:00 6.1 5 Este 11 Este 0 -- -- 72
2019-02-28 06:00:00 6.8 0 Calma 10 Noroeste 0 -- -- 71
2019-02-28 05:00:00 9.1 7 Noroeste 12 Noroeste 0 -- -- 62
2019-02-28 04:00:00 6.9 3 Norte 6 Noroeste 0 -- -- 68
2019-02-28 03:00:00 7 3 Norte 5 Norte 0 -- -- 71
2019-02-28 02:00:00 6.4 2 Este 5 Nordeste 0 -- -- 71
2019-02-28 01:00:00 8.7 0 Calma 9 Noroeste 0 -- -- 60
2019-02-28 00:00:00 9.7 8 Noroeste 14 Noroeste 0 -- -- 53
2019-02-27 23:00:00 10.9 4 Norte 10 Norte 0 -- -- 50
2019-02-27 22:00:00 11 7 Norte 10 Norte 0 -- -- 51
2019-02-27 21:00:00 11.9 8 Norte 10 Norte 0 -- -- 49
2019-02-27 20:00:00 12.7 4 Norte 15 Noroeste 0 -- -- 48
2019-02-27 19:00:00 14.4 5 Oeste 13 Noroeste 0 -- -- 48
2019-02-27 18:00:00 15.8 5 Oeste 15 Oeste 0 -- -- 45
2019-02-27 17:00:00 16.4 14 Oeste 19 Oeste 0 -- -- 37
2019-02-27 16:00:00 17.4 9 Oeste 19 Sudoeste 0 -- -- 37
2019-02-27 15:00:00 17.7 8 Oeste 14 Oeste 0 -- -- 35
2019-02-27 14:00:00 16.9 7 Oeste 16 Oeste 0 -- -- 41
2019-02-27 13:00:00 16.6 5 Sudoeste 13 Oeste 0 -- -- 42
2019-02-27 12:00:00 15.7 8 Sudoeste 13 Sudoeste 0 -- -- 47
2019-02-27 11:00:00 15 4 Sur 9 Sur 0 -- -- 42
2019-02-27 10:00:00 12.5 2 Este 8 Nordeste 0 -- -- 47
2019-02-27 09:00:00 8.7 5 Este 13 Este 0 -- -- 54
2019-02-27 08:00:00 7.8 8 Este 13 Este 0 -- -- 52
2019-02-27 07:00:00 6.4 0 Calma 4 Sudeste 0 -- -- 62
2019-02-27 06:00:00 8.5 3 Este 4 Este 0 -- -- 51
2019-02-27 05:00:00 8.6 3 Este 7 Este 0 -- -- 48
2019-02-27 04:00:00 9.5 3 Este 10 Este 0 -- -- 46
2019-02-27 03:00:00 9.2 3 Este 6 Sudeste 0 -- -- 50
2019-02-27 02:00:00 8.8 5 Nordeste 7 Sur 0 -- -- 56
2019-02-27 01:00:00 10.7 5 Sudoeste 10 Oeste 0 -- -- 51
2019-02-27 00:00:00 12.2 4 Este 13 Nordeste 0 -- -- 47
2019-02-26 23:00:00 11.8 0 Calma 6 Este 0 -- -- 48
2019-02-26 22:00:00 12.8 3 Este 7 Sudeste 0 -- -- 46
2019-02-26 21:00:00 13.6 2 Este 5 Este 0 -- -- 44
2019-02-26 20:00:00 13.1 2 Este 5 Este 0 -- -- 48
2019-02-26 19:00:00 18.6 2 Este 12 Este 0 -- -- 36
2019-02-26 18:00:00 20.2 6 Sudeste 21 Sudeste 0 -- -- 29
2019-02-26 17:00:00 20.6 8 Este 20 Sudeste 0 -- -- 28
2019-02-26 16:00:00 20.5 8 Sudeste 23 Sudeste 0 -- -- 30
2019-02-26 15:00:00 19.7 9 Este 24 Este -- -- -- 34
2019-02-26 14:00:00 18.4 11 Este 25 Sudeste 0 -- -- 38
2019-02-26 13:00:00 17.2 11 Este 26 Este 0 -- -- 40
2019-02-26 12:00:00 15.4 8 Este 22 Este 0 -- -- 43
2019-02-26 11:00:00 13.4 10 Este 22 Este 0 -- -- 47
2019-02-26 10:00:00 12 10 Este 22 Este 0 -- -- 47
2019-02-26 09:00:00 10.5 8 Este 18 Nordeste 0 -- -- 48
2019-02-26 08:00:00 9.8 8 Este 16 Este 0 -- -- 49
2019-02-26 07:00:00 10 5 Este 13 Sudeste 0 -- -- 52
2019-02-26 06:00:00 10.7 3 Este 15 Nordeste 0 -- -- 49
2019-02-26 05:00:00 11.5 10 Este 18 Este 0 -- -- 46
2019-02-26 04:00:00 11.3 10 Nordeste 17 Este 0 -- -- 49
2019-02-26 03:00:00 11.5 9 Este 16 Nordeste 0 -- -- 54
2019-02-26 02:00:00 11.5 9 Nordeste 17 Nordeste 0 -- -- 61
2019-02-26 01:00:00 10.7 5 Nordeste 11 Este 0 -- -- 65
2019-02-26 00:00:00 10.9 4 Este 5 Este 0 -- -- 66
2019-02-25 23:00:00 10.3 2 Nordeste 5 Norte 0 -- -- 70
2019-02-25 22:00:00 11.4 4 Norte 6 Nordeste 0 -- -- 67
2019-02-25 21:00:00 11.9 2 Norte 3 Norte 0 -- -- 66
2019-02-25 20:00:00 14 0 Calma 6 Oeste 0 -- -- 58
2019-02-25 19:00:00 18.5 5 Sudoeste 9 Sudeste 0 -- -- 47
2019-02-25 18:00:00 20.1 4 Sudeste 14 Este 0 -- -- 40
2019-02-25 17:00:00 20.1 6 Este 16 Sudeste 0 -- -- 39
2019-02-25 16:00:00 19.7 5 Este 17 Este 0 -- -- 40
2019-02-25 15:00:00 19 8 Este 18 Sudeste 0 -- -- 40
2019-02-25 14:00:00 18.1 8 Este 22 Este 0 -- -- 40
2019-02-25 13:00:00 17.1 8 Este 22 Este 0 -- -- 42
2019-02-25 12:00:00 16 8 Este 16 Nordeste 0 -- -- 43
2019-02-25 11:00:00 14.3 7 Este 18 Este 0 -- -- 48
2019-02-25 10:00:00 11.8 10 Nordeste 22 Este 0 -- -- 54
2019-02-25 09:00:00 8.7 6 Este 16 Nordeste 0 -- -- 61
2019-02-25 08:00:00 7.9 3 Este 12 Nordeste 0 -- -- 61
2019-02-25 07:00:00 9 5 Este 15 Nordeste 0 -- -- 58
2019-02-25 06:00:00 9.8 3 Este 15 Este 0 -- -- 55
2019-02-25 05:00:00 11.1 9 Este 19 Nordeste 0 -- -- 51
2019-02-25 04:00:00 11.4 9 Este 18 Este 0 -- -- 51
2019-02-25 03:00:00 12 8 Este 16 Este 0 -- -- 49
2019-02-25 02:00:00 12.5 8 Este 15 Nordeste 0 -- -- 48
2019-02-25 01:00:00 13.1 10 Este 16 Este 0 -- -- 47
2019-02-25 00:00:00 12.2 6 Nordeste 11 Nordeste 0 -- -- 52
2019-02-24 23:00:00 11.7 4 Nordeste 7 Nordeste 0 -- -- 54
2019-02-24 22:00:00 11.6 5 Nordeste 6 Norte 0 -- -- 57
2019-02-24 21:00:00 11.2 3 Nordeste 4 Nordeste 0 -- -- 61
2019-02-24 20:00:00 12.3 0 Calma 4 Norte 0 -- -- 59
2019-02-24 19:00:00 17.7 3 Sur 8 Sur 0 -- -- 43
2019-02-24 18:00:00 20 4 Sur 15 Sudeste 0 -- -- 38
2019-02-24 17:00:00 20.2 7 Sur 15 Sudeste 0 -- -- 35
2019-02-24 16:00:00 20.3 6 Sudeste 17 Sudeste 0 -- -- 36
2019-02-24 15:00:00 19.6 9 Este 24 Sudeste 0 -- -- 34
2019-02-24 14:00:00 18.5 10 Sudeste 24 Sudeste 0 -- -- 39
2019-02-24 13:00:00 18 9 Este 22 Sudeste 0 -- -- 43
2019-02-24 12:00:00 17.2 8 Este 18 Este 0 -- -- 42
2019-02-24 11:00:00 15.2 3 Nordeste 19 Este 0 -- -- 47
2019-02-24 10:00:00 12.8 7 Este 15 Nordeste 0 -- -- 51
2019-02-24 09:00:00 10 4 Este 14 Nordeste 0 -- -- 58
2019-02-24 08:00:00 10 9 Nordeste 17 Nordeste 0 -- -- 56
2019-02-24 07:00:00 10.2 6 Este 19 Nordeste 0 -- -- 58
2019-02-24 06:00:00 10.1 7 Este 14 Este 0 -- -- 61
2019-02-24 05:00:00 9.9 5 Este 13 Este 0 -- -- 64
2019-02-24 04:00:00 9.8 6 Este 16 Este 0 -- -- 69
2019-02-24 03:00:00 10.3 6 Este 13 Este 0 -- -- 69
2019-02-24 02:00:00 10.6 5 Este 13 Este 0 -- -- 73
2019-02-24 01:00:00 10.5 3 Este 10 Nordeste 0 -- -- 73
2019-02-24 00:00:00 11.6 4 Este 11 Norte 0 -- -- 62
2019-02-23 23:00:00 12.8 9 Norte 13 Norte 0 -- -- 56
2019-02-23 22:00:00 12.1 5 Noroeste 13 Noroeste 0 -- -- 59
2019-02-23 21:00:00 10.9 5 Noroeste 10 Noroeste 0 -- -- 66
2019-02-23 20:00:00 11.8 3 Norte 5 Nordeste 0 -- -- 73
2019-02-23 19:00:00 14.4 4 Noroeste 6 Oeste 0 -- -- 67
2019-02-23 18:00:00 16 5 Oeste 10 Oeste 0 -- -- 59
2019-02-23 17:00:00 17.5 5 Sudoeste 9 Sudoeste 0 -- -- 47
2019-02-23 16:00:00 16.8 7 Sudoeste 11 Sudoeste 0 -- -- 48
2019-02-23 15:00:00 16.6 5 Sudoeste 12 Sudoeste 0 -- -- 50
2019-02-23 14:00:00 15.4 7 Oeste 11 Oeste 0 -- -- 54
2019-02-23 13:00:00 14.7 5 Oeste 10 Sudoeste 0 -- -- 55
2019-02-23 12:00:00 15.1 3 Sudoeste 6 Sur 0 -- -- 52
2019-02-23 11:00:00 14.2 2 Sur 6 Sudoeste 0 -- -- 53
2019-02-23 10:00:00 11.7 2 Oeste 3 Sudoeste 0 -- -- 53
2019-02-23 09:00:00 6.9 2 Norte 5 Noroeste 0 -- -- 69
2019-02-23 08:00:00 6.2 0 Calma 3 Norte 0 -- -- 70
2019-02-23 07:00:00 7.1 2 Nordeste 3 Nordeste 0 -- -- 66
2019-02-23 06:00:00 7.3 2 Nordeste 4 Norte 0 -- -- 65
2019-02-23 05:00:00 8.9 3 Norte 6 Norte 0 -- -- 56
2019-02-23 04:00:00 8.3 3 Norte 8 Norte 0 -- -- 62
2019-02-23 03:00:00 8.1 3 Oeste 6 Oeste 0 -- -- 60
2019-02-23 02:00:00 8.4 0 Calma 4 Norte 0 -- -- 63
2019-02-23 01:00:00 8.7 3 Norte 5 Nordeste 0 -- -- 59
2019-02-23 00:00:00 9.2 3 Nordeste 5 Nordeste 0 -- -- 57
2019-02-22 23:00:00 9.9 4 Nordeste 8 Nordeste 0 -- -- 55
2019-02-22 22:00:00 9.9 5 Nordeste 7 Nordeste 0 -- -- 57
2019-02-22 21:00:00 11.2 3 Nordeste 6 Este 0 -- -- 50
2019-02-22 20:00:00 11.3 3 Nordeste 4 Nordeste 0 -- -- 56
2019-02-22 19:00:00 16.2 0 Calma 7 Sur 0 -- -- 38
2019-02-22 18:00:00 18.9 4 Sur 12 Sur 0 -- -- 34
2019-02-22 17:00:00 19.6 2 Sur 14 Este 0 -- -- 31
2019-02-22 16:00:00 19.7 5 Sur 15 Sudeste 0 -- -- 31
2019-02-22 15:00:00 19.2 7 Sudeste 17 Sudeste 0 -- -- 32
2019-02-22 14:00:00 18.1 8 Este 18 Este 0 -- -- 33
2019-02-22 13:00:00 16.8 7 Este 18 Este 0 -- -- 37
2019-02-22 12:00:00 15.8 8 Este 18 Este 0 -- -- 39
2019-02-22 11:00:00 13.8 8 Este 21 Nordeste 0 -- -- 39
2019-02-22 10:00:00 11.1 6 Este 19 Este 0 -- -- 46
2019-02-22 09:00:00 9.6 8 Este 17 Este 0 -- -- 47
2019-02-22 08:00:00 9.2 9 Este 23 Nordeste 0 -- -- 46
2019-02-22 07:00:00 9.1 11 Este 21 Nordeste 0 -- -- 48
2019-02-22 06:00:00 9.5 7 Este 16 Nordeste 0 -- -- 49
2019-02-22 05:00:00 10 11 Este 17 Nordeste 0 -- -- 45
2019-02-22 04:00:00 10 10 Este 15 Este 0 -- -- 49
2019-02-22 03:00:00 9.5 5 Este 11 Este 0 -- -- 54
2019-02-22 02:00:00 9.6 3 Este 8 Nordeste 0 -- -- 59
2019-02-22 01:00:00 10.5 3 Este 10 Este 0 -- -- 55
2019-02-22 00:00:00 11.6 4 Este 14 Nordeste 0 -- -- 52
2019-02-21 23:00:00 12.5 9 Nordeste 14 Este 0 -- -- 51
2019-02-21 22:00:00 11.8 7 Nordeste 10 Nordeste 0 -- -- 56
2019-02-21 21:00:00 11.3 3 Este 6 Nordeste 0 -- -- 59
2019-02-21 20:00:00 11.4 0 Calma 3 Este 0 -- -- 63
2019-02-21 19:00:00 15.3 0 Calma 8 Sudeste 0 -- -- 55
2019-02-21 18:00:00 17.7 3 Sudeste 13 Este 0 -- -- 44
2019-02-21 17:00:00 18 4 Este 15 Sur 0 -- -- 42
2019-02-21 16:00:00 18.2 5 Sur 17 Sudeste 0 -- -- 45
2019-02-21 15:00:00 17.5 8 Sur 16 Sur 0 -- -- 48
2019-02-21 14:00:00 16.4 6 Este 19 Sudeste 0 -- -- 48
2019-02-21 13:00:00 15.1 8 Este 19 Este 0 -- -- 51
2019-02-21 12:00:00 14.2 6 Este 17 Este 0 -- -- 52
2019-02-21 11:00:00 12.5 6 Este 19 Este 0 -- -- 56
2019-02-21 10:00:00 10.2 6 Este 18 Este 0 -- -- 64
2019-02-21 09:00:00 8.4 10 Este 23 Este 0 -- -- 67
2019-02-21 08:00:00 8 8 Este 18 Este 0 -- -- 68
2019-02-21 07:00:00 8.5 8 Este 18 Este 0 -- -- 68
2019-02-21 06:00:00 8.9 7 Este 20 Nordeste 0 -- -- 68
2019-02-21 05:00:00 9.1 10 Este 20 Este 0 -- -- 69
2019-02-21 04:00:00 9.3 10 Este 21 Nordeste 0 -- -- 70
2019-02-21 03:00:00 9.7 9 Este 17 Nordeste 0 -- -- 69
2019-02-21 02:00:00 9.7 6 Este 15 Este 0 -- -- 70
2019-02-21 01:00:00 9.7 5 Este 14 Nordeste 0 -- -- 71
2019-02-21 00:00:00 9.8 5 Este 14 Nordeste 0 -- -- 70
2019-02-20 23:00:00 10.5 7 Nordeste 12 Este 0 -- -- 67
2019-02-20 22:00:00 9.5 5 Nordeste 10 Nordeste 0 -- -- 67
2019-02-20 21:00:00 10 2 Este 4 Este 0 -- -- 67
2019-02-20 20:00:00 10.6 0 Calma 3 Este 0 -- -- 71
2019-02-20 19:00:00 13.3 0 Calma 8 Oeste 0 -- -- 63
2019-02-20 18:00:00 15.8 3 Sur 12 Sudoeste 0 -- -- 52
2019-02-20 17:00:00 16.4 5 Sur 14 Sur 0 -- -- 52
2019-02-20 16:00:00 15.8 5 Este 12 Sur 0 -- -- 50
2019-02-20 15:00:00 15.4 3 Este 12 Sudoeste 0 -- -- 54
2019-02-20 14:00:00 14.8 2 Norte 13 Oeste 0 -- -- 60
2019-02-20 13:00:00 12.9 3 Norte 8 Noroeste 0 -- -- 71
2019-02-20 12:00:00 12.2 2 Sudeste 6 Este 0 -- -- 73
2019-02-20 11:00:00 10.9 0 Calma 6 Nordeste 0 -- -- 78
2019-02-20 10:00:00 9.4 3 Nordeste 9 Este 0 -- -- 87
2019-02-20 09:00:00 6.8 5 Nordeste 13 Este 0 -- -- 93
2019-02-20 08:00:00 6.4 6 Este 12 Nordeste 0 -- -- 92
2019-02-20 07:00:00 6.9 7 Nordeste 12 Este 0 -- -- 92
2019-02-20 06:00:00 6.7 4 Este 14 Nordeste 0 -- -- 92
2019-02-20 05:00:00 7.1 5 Este 15 Este 0 -- -- 91
2019-02-20 04:00:00 7.7 6 Este 14 Nordeste 0 -- -- 91
2019-02-20 03:00:00 7.5 4 Este 10 Este 0 -- -- 92
2019-02-20 02:00:00 7.1 2 Este 5 Sudeste 0 -- -- 94
2019-02-20 01:00:00 7.2 0 Calma 6 Noroeste 0 -- -- 91
2019-02-20 00:00:00 8.5 5 Noroeste 13 Sudoeste 0 -- -- 90